sensor_id;sensor_type;location;lat;lon;timestamp;pressure;altitude;pressure_sealevel;temperature;humidity
62011;BME280;47967;51.756;10.174;2023-02-01T05:01:55;99531.56;;;5.75;72.28
62011;BME280;47967;51.756;10.174;2023-02-01T05:05:58;99522.56;;;5.68;72.24
62011;BME280;47967;51.756;10.174;2023-02-01T05:10:01;99520.41;;;5.63;71.82
62011;BME280;47967;51.756;10.174;2023-02-01T05:14:04;99520.88;;;5.75;72.07
62011;BME280;47967;51.756;10.174;2023-02-01T05:18:07;99532.56;;;5.74;72.01
62011;BME280;47967;51.756;10.174;2023-02-01T05:22:10;99527.03;;;5.75;71.99
62011;BME280;47967;51.756;10.174;2023-02-01T05:26:12;99528.56;;;5.70;72.28
62011;BME280;47967;51.756;10.174;2023-02-01T05:30:15;99512.06;;;5.58;72.28
62011;BME280;47967;51.756;10.174;2023-02-01T05:34:19;99504.47;;;5.70;72.39
62011;BME280;47967;51.756;10.174;2023-02-01T05:38:22;99499.22;;;5.53;72.92
62011;BME280;47967;51.756;10.174;2023-02-01T05:42:24;99495.34;;;5.56;72.92
62011;BME280;47967;51.756;10.174;2023-02-01T05:46:27;99494.13;;;5.67;73.28
62011;BME280;47967;51.756;10.174;2023-02-01T05:50:31;99496.31;;;5.63;72.74
62011;BME280;47967;51.756;10.174;2023-02-01T05:54:33;99499.78;;;5.72;73.20
62011;BME280;47967;51.756;10.174;2023-02-01T05:58:36;99498.13;;;5.71;72.42
62011;BME280;47967;51.756;10.174;2023-02-01T06:02:38;99492.09;;;5.69;73.05
62011;BME280;47967;51.756;10.174;2023-02-01T06:06:43;99500.53;;;5.57;73.36
62011;BME280;47967;51.756;10.174;2023-02-01T06:10:45;99496.84;;;5.58;73.75
62011;BME280;47967;51.756;10.174;2023-02-01T06:14:48;99490.19;;;5.54;74.99
62011;BME280;47967;51.756;10.174;2023-02-01T06:18:50;99492.22;;;5.44;75.52
62011;BME280;47967;51.756;10.174;2023-02-01T06:22:54;99494.22;;;5.42;75.51
62011;BME280;47967;51.756;10.174;2023-02-01T06:26:57;99487.72;;;5.44;76.07
62011;BME280;47967;51.756;10.174;2023-02-01T06:31:03;99485.56;;;5.40;76.12
62011;BME280;47967;51.756;10.174;2023-02-01T06:35:09;99485.59;;;5.32;76.60
62011;BME280;47967;51.756;10.174;2023-02-01T06:39:14;99482.94;;;5.23;77.07
62011;BME280;47967;51.756;10.174;2023-02-01T06:43:17;99488.16;;;5.08;78.27
62011;BME280;47967;51.756;10.174;2023-02-01T06:47:19;99484.28;;;5.19;77.79
62011;BME280;47967;51.756;10.174;2023-02-01T06:51:25;99482.19;;;4.98;78.53
62011;BME280;47967;51.756;10.174;2023-02-01T06:55:29;99485.31;;;5.10;78.70
62011;BME280;47967;51.756;10.174;2023-02-01T06:59:32;99480.47;;;5.05;78.35
62011;BME280;47967;51.756;10.174;2023-02-01T07:03:34;99488.19;;;5.00;78.51
62011;BME280;47967;51.756;10.174;2023-02-01T07:07:37;99478.66;;;4.97;78.69
62011;BME280;47967;51.756;10.174;2023-02-01T07:11:41;99486.88;;;4.88;79.75
62011;BME280;47967;51.756;10.174;2023-02-01T07:15:45;99476.66;;;4.91;79.60
62011;BME280;47967;51.756;10.174;2023-02-01T07:19:48;99481.50;;;4.96;79.57
62011;BME280;47967;51.756;10.174;2023-02-01T07:23:51;99483.00;;;4.99;79.11
62011;BME280;47967;51.756;10.174;2023-02-01T07:27:55;99482.31;;;5.05;78.80
62011;BME280;47967;51.756;10.174;2023-02-01T07:31:57;99488.66;;;5.04;78.90
62011;BME280;47967;51.756;10.174;2023-02-01T07:36:01;99496.06;;;5.02;78.68
62011;BME280;47967;51.756;10.174;2023-02-01T07:40:05;99494.50;;;5.16;78.48
62011;BME280;47967;51.756;10.174;2023-02-01T07:44:09;99491.13;;;5.22;77.94
62011;BME280;47967;51.756;10.174;2023-02-01T07:48:12;99517.84;;;5.30;77.55
62011;BME280;47967;51.756;10.174;2023-02-01T07:52:14;99533.03;;;5.38;77.87
62011;BME280;47967;51.756;10.174;2023-02-01T07:56:19;99514.00;;;5.33;78.89
62011;BME280;47967;51.756;10.174;2023-02-01T08:00:24;99532.44;;;5.03;79.69
62011;BME280;47967;51.756;10.174;2023-02-01T08:04:44;99539.16;;;5.07;80.44
62011;BME280;47967;51.756;10.174;2023-02-01T08:08:46;99520.91;;;5.10;80.38
62011;BME280;47967;51.756;10.174;2023-02-01T08:12:49;99544.00;;;5.11;79.74
62011;BME280;47967;51.756;10.174;2023-02-01T08:16:54;99541.13;;;5.21;80.00
62011;BME280;47967;51.756;10.174;2023-02-01T08:20:57;99537.09;;;5.25;79.55
62011;BME280;47967;51.756;10.174;2023-02-01T08:25:06;99553.75;;;5.36;78.99
62011;BME280;47967;51.756;10.174;2023-02-01T08:29:09;99549.69;;;5.56;78.33
62011;BME280;47967;51.756;10.174;2023-02-01T08:33:15;99559.56;;;5.56;77.21
62011;BME280;47967;51.756;10.174;2023-02-01T08:37:17;99542.50;;;5.65;76.67
62011;BME280;47967;51.756;10.174;2023-02-01T08:41:22;99561.38;;;5.64;76.21
62011;BME280;47967;51.756;10.174;2023-02-01T08:45:26;99546.59;;;5.76;75.49
62011;BME280;47967;51.756;10.174;2023-02-01T08:49:31;99546.94;;;5.81;74.58
62011;BME280;47967;51.756;10.174;2023-02-01T08:53:34;99566.22;;;5.68;74.30
62011;BME280;47967;51.756;10.174;2023-02-01T08:57:37;99555.44;;;5.85;73.54
62011;BME280;47967;51.756;10.174;2023-02-01T09:01:40;99550.53;;;5.97;73.08
62011;BME280;47967;51.756;10.174;2023-02-01T09:05:44;99555.25;;;5.95;72.32
62011;BME280;47967;51.756;10.174;2023-02-01T09:09:50;99550.59;;;6.20;71.62
62011;BME280;47967;51.756;10.174;2023-02-01T09:13:54;99556.31;;;6.17;71.14
62011;BME280;47967;51.756;10.174;2023-02-01T09:17:56;99560.03;;;6.39;70.35
62011;BME280;47967;51.756;10.174;2023-02-01T09:22:00;99548.88;;;6.27;70.50
62011;BME280;47967;51.756;10.174;2023-02-01T09:26:04;99576.84;;;6.24;71.30
62011;BME280;47967;51.756;10.174;2023-02-01T09:30:09;99550.81;;;6.10;72.56
62011;BME280;47967;51.756;10.174;2023-02-01T09:34:12;99554.16;;;6.12;72.48
62011;BME280;47967;51.756;10.174;2023-02-01T09:38:16;99567.63;;;6.27;71.76
62011;BME280;47967;51.756;10.174;2023-02-01T09:42:31;99561.44;;;6.27;70.66
62011;BME280;47967;51.756;10.174;2023-02-01T09:46:36;99574.00;;;6.49;70.12
62011;BME280;47967;51.756;10.174;2023-02-01T09:50:41;99564.38;;;6.40;69.09
62011;BME280;47967;51.756;10.174;2023-02-01T09:54:52;99574.66;;;6.51;68.68
62011;BME280;47967;51.756;10.174;2023-02-01T09:59:02;99565.97;;;6.49;68.61
62011;BME280;47967;51.756;10.174;2023-02-01T10:03:11;99576.03;;;6.47;68.50
62011;BME280;47967;51.756;10.174;2023-02-01T10:07:26;99586.72;;;6.55;68.26
62011;BME280;47967;51.756;10.174;2023-02-01T10:11:41;99568.53;;;6.66;68.12
62011;BME280;47967;51.756;10.174;2023-02-01T10:15:59;99576.88;;;6.71;67.71
62011;BME280;47967;51.756;10.174;2023-02-01T10:20:10;99578.47;;;6.80;67.79
62011;BME280;47967;51.756;10.174;2023-02-01T10:24:36;99581.56;;;6.92;67.65
62011;BME280;47967;51.756;10.174;2023-02-01T10:28:42;99571.81;;;7.14;66.75
62011;BME280;47967;51.756;10.174;2023-02-01T10:32:48;99562.03;;;7.21;65.44
62011;BME280;47967;51.756;10.174;2023-02-01T10:36:57;99563.69;;;7.37;65.04
62011;BME280;47967;51.756;10.174;2023-02-01T10:41:03;99566.94;;;7.33;64.23
62011;BME280;47967;51.756;10.174;2023-02-01T10:45:15;99563.41;;;7.32;64.38
62011;BME280;47967;51.756;10.174;2023-02-01T10:49:22;99561.16;;;7.36;63.80
62011;BME280;47967;51.756;10.174;2023-02-01T10:53:31;99560.63;;;7.26;64.37
62011;BME280;47967;51.756;10.174;2023-02-01T10:57:37;99560.41;;;7.12;63.92
62011;BME280;47967;51.756;10.174;2023-02-01T11:01:42;99581.06;;;7.27;63.62
62011;BME280;47967;51.756;10.174;2023-02-01T11:05:47;99564.22;;;7.18;63.64
62011;BME280;47967;51.756;10.174;2023-02-01T11:09:52;99548.69;;;7.28;63.94
62011;BME280;47967;51.756;10.174;2023-02-01T11:13:57;99545.66;;;7.31;64.57
62011;BME280;47967;51.756;10.174;2023-02-01T11:18:16;99545.44;;;7.33;63.98
62011;BME280;47967;51.756;10.174;2023-02-01T11:22:18;99543.03;;;7.23;63.64
62011;BME280;47967;51.756;10.174;2023-02-01T11:26:22;99529.72;;;7.45;63.76
62011;BME280;47967;51.756;10.174;2023-02-01T11:30:31;99540.94;;;7.48;63.54
62011;BME280;47967;51.756;10.174;2023-02-01T11:34:38;99541.00;;;7.55;63.09
62011;BME280;47967;51.756;10.174;2023-02-01T11:38:46;99534.44;;;7.28;63.85
62011;BME280;47967;51.756;10.174;2023-02-01T11:42:54;99546.81;;;7.14;63.82
62011;BME280;47967;51.756;10.174;2023-02-01T11:47:18;99526.56;;;7.11;64.40
62011;BME280;47967;51.756;10.174;2023-02-01T11:51:40;99524.81;;;7.18;64.51
62011;BME280;47967;51.756;10.174;2023-02-01T11:55:55;99529.63;;;7.08;64.16
62011;BME280;47967;51.756;10.174;2023-02-01T12:00:10;99495.94;;;7.05;64.29
62011;BME280;47967;51.756;10.174;2023-02-01T12:04:43;99485.13;;;7.14;63.75
62011;BME280;47967;51.756;10.174;2023-02-01T12:13:37;99471.44;;;7.39;63.49
62011;BME280;47967;51.756;10.174;2023-02-01T12:17:56;99473.06;;;7.40;63.31
62011;BME280;47967;51.756;10.174;2023-02-01T12:22:17;99450.88;;;7.31;62.99
62011;BME280;47967;51.756;10.174;2023-02-01T12:26:37;99451.25;;;7.13;64.16
62011;BME280;47967;51.756;10.174;2023-02-01T12:30:57;99445.06;;;7.12;64.13
62011;BME280;47967;51.756;10.174;2023-02-01T12:35:18;99434.25;;;7.05;64.47
62011;BME280;47967;51.756;10.174;2023-02-01T12:39:29;99430.38;;;7.08;64.76
62011;BME280;47967;51.756;10.174;2023-02-01T12:43:39;99410.47;;;7.02;64.90
62011;BME280;47967;51.756;10.174;2023-02-01T12:47:50;99412.06;;;7.12;65.25
62011;BME280;47967;51.756;10.174;2023-02-01T12:52:00;99397.75;;;7.26;64.44
62011;BME280;47967;51.756;10.174;2023-02-01T12:56:07;99391.41;;;7.12;65.36
62011;BME280;47967;51.756;10.174;2023-02-01T13:00:19;99390.41;;;7.13;65.32
62011;BME280;47967;51.756;10.174;2023-02-01T13:04:32;99375.06;;;7.07;65.90
62011;BME280;47967;51.756;10.174;2023-02-01T13:08:42;99385.78;;;7.07;64.96
62011;BME280;47967;51.756;10.174;2023-02-01T13:12:50;99381.91;;;6.95;65.39
62011;BME280;47967;51.756;10.174;2023-02-01T13:17:00;99356.72;;;7.11;66.45
62011;BME280;47967;51.756;10.174;2023-02-01T13:21:07;99353.31;;;6.87;67.63
62011;BME280;47967;51.756;10.174;2023-02-01T13:25:13;99346.13;;;6.87;68.66
62011;BME280;47967;51.756;10.174;2023-02-01T13:29:17;99352.81;;;6.62;68.93
62011;BME280;47967;51.756;10.174;2023-02-01T13:33:46;99340.59;;;6.74;70.26
62011;BME280;47967;51.756;10.174;2023-02-01T13:38:08;99328.38;;;6.56;70.56
62011;BME280;47967;51.756;10.174;2023-02-01T13:42:19;99331.06;;;6.56;71.79
62011;BME280;47967;51.756;10.174;2023-02-01T13:46:23;99331.78;;;6.35;72.46
62011;BME280;47967;51.756;10.174;2023-02-01T13:50:30;99327.63;;;6.33;73.25
62011;BME280;47967;51.756;10.174;2023-02-01T13:54:38;99342.59;;;6.27;74.11
62011;BME280;47967;51.756;10.174;2023-02-01T13:58:59;99321.44;;;6.32;73.80
62011;BME280;47967;51.756;10.174;2023-02-01T14:03:22;99311.25;;;6.13;74.79
62011;BME280;47967;51.756;10.174;2023-02-01T14:08:09;99307.94;;;6.11;75.75
62011;BME280;47967;51.756;10.174;2023-02-01T14:12:43;99326.44;;;5.97;76.57
62011;BME280;47967;51.756;10.174;2023-02-01T14:21:46;99301.28;;;5.83;76.91
62011;BME280;47967;51.756;10.174;2023-02-01T14:26:09;99296.88;;;5.90;77.67
62011;BME280;47967;51.756;10.174;2023-02-01T14:30:15;99301.69;;;5.95;77.71
62011;BME280;47967;51.756;10.174;2023-02-01T14:34:23;99304.75;;;5.92;77.17
62011;BME280;47967;51.756;10.174;2023-02-01T14:38:27;99290.97;;;5.95;77.36
62011;BME280;47967;51.756;10.174;2023-02-01T14:42:38;99295.19;;;5.89;77.76
62011;BME280;47967;51.756;10.174;2023-02-01T14:47:07;99292.84;;;5.95;77.61
62011;BME280;47967;51.756;10.174;2023-02-01T14:51:13;99337.41;;;5.87;78.24
62011;BME280;47967;51.756;10.174;2023-02-01T14:55:21;99372.59;;;5.53;79.60
62011;BME280;47967;51.756;10.174;2023-02-01T14:59:30;99440.44;;;2.79;83.01
62011;BME280;47967;51.756;10.174;2023-02-01T15:03:41;99429.16;;;1.42;89.77
62011;BME280;47967;51.756;10.174;2023-02-01T15:07:46;99454.25;;;1.58;93.57
62011;BME280;47967;51.756;10.174;2023-02-01T15:11:57;99436.81;;;1.73;95.12
62011;BME280;47967;51.756;10.174;2023-02-01T15:16:03;99419.41;;;1.79;96.60
62011;BME280;47967;51.756;10.174;2023-02-01T15:20:13;99438.31;;;1.94;97.21
62011;BME280;47967;51.756;10.174;2023-02-01T15:24:20;99444.56;;;1.85;97.53
62011;BME280;47967;51.756;10.174;2023-02-01T15:28:23;99447.91;;;1.87;97.71
62011;BME280;47967;51.756;10.174;2023-02-01T15:32:32;99448.44;;;1.90;98.12
62011;BME280;47967;51.756;10.174;2023-02-01T15:36:35;99447.44;;;1.91;98.47
62011;BME280;47967;51.756;10.174;2023-02-01T15:40:53;99443.88;;;2.01;98.59
62011;BME280;47967;51.756;10.174;2023-02-01T15:44:56;99447.88;;;2.05;99.14
62011;BME280;47967;51.756;10.174;2023-02-01T15:49:00;99456.81;;;2.14;98.93
62011;BME280;47967;51.756;10.174;2023-02-01T15:53:02;99447.44;;;2.28;99.01
62011;BME280;47967;51.756;10.174;2023-02-01T15:57:06;99446.72;;;2.44;98.61
62011;BME280;47967;51.756;10.174;2023-02-01T16:01:11;99465.41;;;2.52;98.16
62011;BME280;47967;51.756;10.174;2023-02-01T16:05:33;99464.31;;;2.63;98.11
62011;BME280;47967;51.756;10.174;2023-02-01T16:09:38;99455.34;;;2.64;97.14
62011;BME280;47967;51.756;10.174;2023-02-01T16:13:41;99481.38;;;2.78;97.41
62011;BME280;47967;51.756;10.174;2023-02-01T16:17:44;99475.53;;;2.75;97.16
62011;BME280;47967;51.756;10.174;2023-02-01T16:21:48;99450.03;;;2.98;96.87
62011;BME280;47967;51.756;10.174;2023-02-01T16:25:51;99460.72;;;2.98;96.05
62011;BME280;47967;51.756;10.174;2023-02-01T16:29:53;99476.22;;;3.03;95.25
62011;BME280;47967;51.756;10.174;2023-02-01T16:33:57;99489.56;;;3.03;95.37
62011;BME280;47967;51.756;10.174;2023-02-01T16:38:01;99482.72;;;3.09;94.50
62011;BME280;47967;51.756;10.174;2023-02-01T16:42:10;99519.78;;;3.20;94.24
62011;BME280;47967;51.756;10.174;2023-02-01T16:46:15;99533.66;;;3.24;93.87
62011;BME280;47967;51.756;10.174;2023-02-01T16:50:20;99528.03;;;3.35;94.63
62011;BME280;47967;51.756;10.174;2023-02-01T16:54:26;99539.81;;;3.24;92.97
62011;BME280;47967;51.756;10.174;2023-02-01T16:58:28;99550.31;;;2.55;93.42
62011;BME280;47967;51.756;10.174;2023-02-01T17:02:31;99552.47;;;1.87;94.78
62011;BME280;47967;51.756;10.174;2023-02-01T17:06:35;99547.25;;;1.96;97.19
62011;BME280;47967;51.756;10.174;2023-02-01T17:10:40;99526.81;;;1.96;97.71
62011;BME280;47967;51.756;10.174;2023-02-01T17:14:43;99514.13;;;2.08;98.38
62011;BME280;47967;51.756;10.174;2023-02-01T17:18:50;99496.09;;;2.20;98.85
62011;BME280;47967;51.756;10.174;2023-02-01T17:22:54;99502.09;;;2.22;98.72
62011;BME280;47967;51.756;10.174;2023-02-01T17:26:58;99517.81;;;2.51;99.01
62011;BME280;47967;51.756;10.174;2023-02-01T17:31:01;99510.28;;;2.91;98.87
62011;BME280;47967;51.756;10.174;2023-02-01T17:35:05;99520.66;;;2.94;98.28
62011;BME280;47967;51.756;10.174;2023-02-01T17:39:15;99512.75;;;3.11;98.54
62011;BME280;47967;51.756;10.174;2023-02-01T17:43:33;99499.47;;;3.19;98.90
62011;BME280;47967;51.756;10.174;2023-02-01T17:47:36;99502.53;;;3.32;99.11
62011;BME280;47967;51.756;10.174;2023-02-01T17:51:39;99495.59;;;3.48;98.82
62011;BME280;47967;51.756;10.174;2023-02-01T17:55:43;99494.75;;;3.47;97.49
62011;BME280;47967;51.756;10.174;2023-02-01T17:59:48;99495.13;;;3.61;96.60
62011;BME280;47967;51.756;10.174;2023-02-01T18:03:50;99498.13;;;3.58;95.64
62011;BME280;47967;51.756;10.174;2023-02-01T18:07:53;99497.44;;;3.56;94.77
62011;BME280;47967;51.756;10.174;2023-02-01T18:11:55;99499.25;;;3.47;94.30
62011;BME280;47967;51.756;10.174;2023-02-01T18:15:59;99488.19;;;3.76;93.11
62011;BME280;47967;51.756;10.174;2023-02-01T18:20:04;99496.88;;;3.95;91.30
62011;BME280;47967;51.756;10.174;2023-02-01T18:24:08;99501.72;;;3.91;91.63
62011;BME280;47967;51.756;10.174;2023-02-01T18:28:12;99491.53;;;3.95;90.34
62011;BME280;47967;51.756;10.174;2023-02-01T18:32:17;99490.94;;;4.18;88.31
62011;BME280;47967;51.756;10.174;2023-02-01T18:36:20;99491.09;;;4.24;87.19
62011;BME280;47967;51.756;10.174;2023-02-01T18:40:25;99503.25;;;4.27;86.59
62011;BME280;47967;51.756;10.174;2023-02-01T18:44:28;99499.09;;;4.32;86.81
62011;BME280;47967;51.756;10.174;2023-02-01T18:48:32;99504.63;;;4.56;87.27
62011;BME280;47967;51.756;10.174;2023-02-01T18:52:34;99505.09;;;4.76;86.32
62011;BME280;47967;51.756;10.174;2023-02-01T18:56:37;99511.09;;;4.78;86.02
62011;BME280;47967;51.756;10.174;2023-02-01T19:00:41;99505.75;;;4.86;85.96
62011;BME280;47967;51.756;10.174;2023-02-01T19:04:45;99529.63;;;4.96;85.14
62011;BME280;47967;51.756;10.174;2023-02-01T19:08:48;99514.56;;;5.11;85.94
62011;BME280;47967;51.756;10.174;2023-02-01T19:12:51;99516.41;;;5.11;86.01
62011;BME280;47967;51.756;10.174;2023-02-01T19:16:55;99530.13;;;5.08;84.69
62011;BME280;47967;51.756;10.174;2023-02-01T19:21:03;99524.41;;;5.19;82.85
62011;BME280;47967;51.756;10.174;2023-02-01T19:25:08;99521.41;;;5.14;83.82
62011;BME280;47967;51.756;10.174;2023-02-01T19:29:14;99532.97;;;4.98;83.33
62011;BME280;47967;51.756;10.174;2023-02-01T19:33:16;99552.00;;;5.03;83.20
62011;BME280;47967;51.756;10.174;2023-02-01T19:37:20;99544.50;;;5.07;83.23
62011;BME280;47967;51.756;10.174;2023-02-01T19:41:23;99542.97;;;5.12;82.97
62011;BME280;47967;51.756;10.174;2023-02-01T19:45:25;99526.06;;;5.20;81.89
62011;BME280;47967;51.756;10.174;2023-02-01T19:49:28;99534.41;;;5.25;83.11
62011;BME280;47967;51.756;10.174;2023-02-01T19:53:31;99545.44;;;5.31;81.43
62011;BME280;47967;51.756;10.174;2023-02-01T19:57:34;99532.91;;;5.23;81.01
62011;BME280;47967;51.756;10.174;2023-02-01T20:01:37;99567.69;;;5.06;80.93
62011;BME280;47967;51.756;10.174;2023-02-01T20:05:39;99549.66;;;5.08;80.52
62011;BME280;47967;51.756;10.174;2023-02-01T20:09:43;99560.69;;;5.05;80.47
62011;BME280;47967;51.756;10.174;2023-02-01T20:13:46;99572.56;;;5.11;80.44
62011;BME280;47967;51.756;10.174;2023-02-01T20:17:49;99566.69;;;5.07;80.07
62011;BME280;47967;51.756;10.174;2023-02-01T20:21:51;99573.03;;;5.23;80.30
62011;BME280;47967;51.756;10.174;2023-02-01T20:26:00;99611.66;;;5.12;80.09
62011;BME280;47967;51.756;10.174;2023-02-01T20:30:03;99591.41;;;5.26;79.07
62011;BME280;47967;51.756;10.174;2023-02-01T20:34:06;99586.25;;;5.24;78.59
62011;BME280;47967;51.756;10.174;2023-02-01T20:38:08;99594.44;;;5.23;78.42
62011;BME280;47967;51.756;10.174;2023-02-01T20:42:12;99583.91;;;5.13;78.36
62011;BME280;47967;51.756;10.174;2023-02-01T20:46:15;99586.09;;;5.18;77.74
62011;BME280;47967;51.756;10.174;2023-02-01T20:50:18;99598.47;;;4.94;78.23
62011;BME280;47967;51.756;10.174;2023-02-01T20:54:21;99595.28;;;4.82;78.06
62011;BME280;47967;51.756;10.174;2023-02-01T20:58:25;99600.63;;;4.90;78.79
62011;BME280;47967;51.756;10.174;2023-02-01T21:02:28;99608.16;;;4.78;79.51
62011;BME280;47967;51.756;10.174;2023-02-01T21:06:30;99609.00;;;4.87;79.64
62011;BME280;47967;51.756;10.174;2023-02-01T21:10:33;99609.31;;;5.09;78.66
62011;BME280;47967;51.756;10.174;2023-02-01T21:14:38;99612.66;;;5.19;78.63
62011;BME280;47967;51.756;10.174;2023-02-01T21:18:40;99612.81;;;5.26;78.37
62011;BME280;47967;51.756;10.174;2023-02-01T21:22:43;99606.44;;;5.27;77.81
62011;BME280;47967;51.756;10.174;2023-02-01T21:26:45;99606.63;;;5.25;78.13
62011;BME280;47967;51.756;10.174;2023-02-01T21:30:49;99606.31;;;5.04;78.06
62011;BME280;47967;51.756;10.174;2023-02-01T21:34:52;99614.00;;;5.07;77.81
62011;BME280;47967;51.756;10.174;2023-02-01T21:38:54;99607.81;;;5.06;77.62
62011;BME280;47967;51.756;10.174;2023-02-01T21:43:04;99609.00;;;5.12;76.32
62011;BME280;47967;51.756;10.174;2023-02-01T21:47:08;99597.63;;;5.18;76.27
62011;BME280;47967;51.756;10.174;2023-02-01T21:51:11;99611.16;;;5.00;76.54
62011;BME280;47967;51.756;10.174;2023-02-01T21:55:17;99610.81;;;5.20;76.70
62011;BME280;47967;51.756;10.174;2023-02-01T21:59:20;99610.97;;;5.26;76.02
